Time;durP1;ratioP1;P1;durP2;ratioP2;P2;SDS_P1;SDS_P2;PMS_P1;PMS_P2;Temp;Humidity;BMP_temperature;BMP_pressure;BME280_temperature;BME280_humidity;BME280_pressure;Samples;Min_cycle;Max_cycle;Signal;HPM_P1;HPM_P2
2023/01/11 00:01:02;;;;;;;31.30;12.10;;;;;;;2.48;100.00;100089.61;109590;1253;59123;-71
2023/01/11 00:03:50;;;;;;;29.20;12.20;;;;;;;2.52;100.00;100089.28;109546;1253;72861;-71
2023/01/11 00:06:38;;;;;;;29.50;12.80;;;;;;;2.54;100.00;100084.30;109550;1253;69036;-72
2023/01/11 00:09:26;;;;;;;33.70;12.70;;;;;;;2.55;100.00;100078.80;109552;1252;72692;-72
2023/01/11 00:12:14;;;;;;;29.70;13.40;;;;;;;2.54;100.00;100075.66;109526;1253;60152;-71
2023/01/11 00:15:01;;;;;;;30.10;12.20;;;;;;;2.55;100.00;100070.91;109471;1253;59113;-70
2023/01/11 00:17:49;;;;;;;32.20;12.90;;;;;;;2.54;100.00;100066.08;109527;1252;73762;-71
2023/01/11 00:20:41;;;;;;;36.20;14.00;;;;;;;2.50;100.00;100060.45;108808;1252;1002023;-71
2023/01/11 00:23:28;;;;;;;36.30;14.40;;;;;;;2.48;100.00;100059.15;109564;1252;72342;-71
2023/01/11 00:26:16;;;;;;;31.10;13.60;;;;;;;2.46;100.00;100059.92;109534;1253;59840;-70
2023/01/11 00:29:04;;;;;;;29.10;12.60;;;;;;;2.47;100.00;100062.19;109575;1252;58906;-70
2023/01/11 00:31:52;;;;;;;29.00;11.90;;;;;;;2.47;100.00;100061.45;109557;1253;74245;-71
2023/01/11 00:34:40;;;;;;;29.70;12.20;;;;;;;2.49;100.00;100061.05;109586;1252;67887;-71
2023/01/11 00:37:28;;;;;;;25.10;10.00;;;;;;;2.49;100.00;100058.77;109558;1252;71096;-70
2023/01/11 00:40:16;;;;;;;26.20;11.50;;;;;;;2.49;100.00;100059.65;109552;1252;58940;-70
2023/01/11 00:49:17;;;;;;;25.90;10.90;;;;;;;2.42;100.00;100063.48;109590;1252;67624;-71
2023/01/11 00:52:10;;;;;;;21.30;9.30;;;;;;;2.39;100.00;100063.04;109529;1253;71220;-71
2023/01/11 00:54:58;;;;;;;24.80;10.80;;;;;;;2.37;100.00;100067.52;109276;1253;58565;-71
2023/01/11 00:57:46;;;;;;;23.20;8.80;;;;;;;2.32;100.00;100074.91;109567;1252;61276;-70
2023/01/11 01:00:34;;;;;;;28.00;10.60;;;;;;;2.28;100.00;100075.94;109547;1252;72945;-71
2023/01/11 01:03:21;;;;;;;28.40;10.80;;;;;;;2.26;100.00;100073.41;109580;1252;67745;-71
2023/01/11 01:06:09;;;;;;;25.20;10.30;;;;;;;2.26;100.00;100073.77;109522;1252;72536;-70
2023/01/11 01:08:57;;;;;;;27.00;10.20;;;;;;;2.23;100.00;100069.89;109525;1252;57312;-70
2023/01/11 01:11:45;;;;;;;22.80;10.00;;;;;;;2.27;100.00;100076.38;109539;1252;60437;-70
2023/01/11 01:14:34;;;;;;;25.70;10.70;;;;;;;2.29;100.00;100077.32;109563;1253;73063;-72
2023/01/11 01:17:22;;;;;;;23.80;10.30;;;;;;;2.31;100.00;100079.85;109581;1252;66696;-70
2023/01/11 01:20:11;;;;;;;22.00;9.10;;;;;;;2.31;100.00;100070.95;109556;1252;72787;-72
2023/01/11 01:22:59;;;;;;;23.80;9.70;;;;;;;2.33;100.00;100070.85;109497;1253;57313;-70
2023/01/11 01:25:48;;;;;;;21.30;9.90;;;;;;;2.33;100.00;100073.30;109496;1254;61202;-71
2023/01/11 01:28:36;;;;;;;25.40;10.40;;;;;;;2.31;100.00;100067.94;109535;1253;71480;-70
2023/01/11 01:31:23;;;;;;;27.90;10.80;;;;;;;2.29;100.00;100069.61;109436;1253;69106;-71
2023/01/11 01:34:12;;;;;;;26.80;9.90;;;;;;;2.28;100.00;100071.41;109533;1253;71524;-70
2023/01/11 01:37:00;;;;;;;26.10;10.80;;;;;;;2.26;100.00;100069.02;109530;1252;57329;-71
2023/01/11 01:39:48;;;;;;;28.00;11.30;;;;;;;2.25;100.00;100070.31;109568;1252;59006;-70
2023/01/11 01:42:35;;;;;;;25.30;9.60;;;;;;;2.25;100.00;100067.67;109545;1252;73082;-70
2023/01/11 01:45:27;;;;;;;20.40;8.40;;;;;;;2.26;100.00;100067.30;108020;1253;1002892;-70
2023/01/11 01:48:20;;;;;;;19.00;8.50;;;;;;;2.25;100.00;100065.23;109410;1252;72813;-71
2023/01/11 01:51:12;;;;;;;22.80;8.20;;;;;;;2.26;100.00;100059.77;109506;1252;59489;-70
2023/01/11 01:54:07;;;;;;;19.00;8.00;;;;;;;2.26;100.00;100056.44;109574;1252;59289;-72
2023/01/11 01:57:01;;;;;;;20.80;8.50;;;;;;;2.27;100.00;100051.65;109428;1253;71509;-69
2023/01/11 01:59:50;;;;;;;19.30;8.30;;;;;;;2.28;100.00;100043.73;109472;1253;67911;-70
2023/01/11 02:02:41;;;;;;;23.30;8.20;;;;;;;2.27;100.00;100041.19;109526;1252;73672;-70
2023/01/11 02:05:29;;;;;;;19.90;7.50;;;;;;;2.24;100.00;100038.83;109527;1252;57586;-70
2023/01/11 02:08:35;;;;;;;21.30;8.90;;;;;;;2.22;100.00;100039.10;109556;1252;60040;-70
2023/01/11 02:11:31;;;;;;;21.50;9.10;;;;;;;2.18;100.00;100039.09;109434;1253;71097;-71
2023/01/11 02:14:19;;;;;;;23.60;9.00;;;;;;;2.14;100.00;100033.66;109536;1253;68967;-70
2023/01/11 02:17:08;;;;;;;18.90;8.20;;;;;;;2.11;100.00;100026.64;109556;1252;71481;-70
2023/01/11 02:20:29;;;;;;;26.10;9.80;;;;;;;2.08;100.00;100026.24;109509;1252;58724;-71
2023/01/11 02:23:36;;;;;;;23.20;8.90;;;;;;;2.02;100.00;100023.16;109538;1252;59590;-71
2023/01/11 02:27:11;;;;;;;22.40;9.50;;;;;;;1.98;100.00;100017.04;109501;1253;74194;-70
2023/01/11 02:30:46;;;;;;;20.50;8.00;;;;;;;1.93;100.00;100013.02;109539;1252;67579;-70
2023/01/11 02:34:14;;;;;;;20.60;8.40;;;;;;;1.85;100.00;100004.98;109519;1252;72344;-72
2023/01/11 02:37:24;;;;;;;24.70;9.10;;;;;;;1.79;100.00;100000.70;109486;1252;59976;-70
2023/01/11 02:40:51;;;;;;;23.10;9.60;;;;;;;1.75;100.00;99996.31;109524;1252;60322;-70
2023/01/11 02:47:49;;;;;;;23.70;9.20;;;;;;;1.74;100.00;99989.20;109295;1252;68602;-71
2023/01/11 02:50:54;;;;;;;21.40;9.00;;;;;;;1.74;100.00;99983.25;109470;1253;72613;-72
2023/01/11 02:53:47;;;;;;;22.70;8.60;;;;;;;1.74;100.00;99981.15;109532;1252;57325;-71
2023/01/11 02:56:42;;;;;;;19.80;8.50;;;;;;;1.74;100.00;99978.84;109341;1252;59359;-73
2023/01/11 02:59:34;;;;;;;21.90;8.60;;;;;;;1.75;100.00;99974.08;109452;1252;73730;-72
2023/01/11 03:02:21;;;;;;;23.60;8.90;;;;;;;1.78;100.00;99973.96;109420;1252;68176;-72
2023/01/11 03:05:14;;;;;;;21.10;7.60;;;;;;;1.79;100.00;99972.33;109551;1253;72887;-72
2023/01/11 03:08:20;;;;;;;18.70;8.60;;;;;;;1.81;100.00;99963.34;109538;1253;57320;-71
2023/01/11 03:15:14;;;;;;;19.80;7.20;;;;;;;1.77;100.00;99955.11;109367;1252;71135;-71
2023/01/11 03:18:41;;;;;;;21.60;7.40;;;;;;;1.78;99.96;99956.45;109549;1252;66796;-71
2023/01/11 03:21:34;;;;;;;18.30;7.50;;;;;;;1.77;99.67;99943.06;109484;1252;73352;-71
2023/01/11 03:24:47;;;;;;;19.30;7.00;;;;;;;1.76;99.50;99948.33;109528;1252;57942;-71
2023/01/11 03:27:48;;;;;;;19.30;7.20;;;;;;;1.76;99.58;99935.02;109610;1252;60479;-71
2023/01/11 03:31:21;;;;;;;17.50;6.70;;;;;;;1.78;99.37;99931.79;109452;1252;73477;-71
2023/01/11 03:34:21;;;;;;;18.70;6.60;;;;;;;1.81;99.02;99929.41;109417;1253;67656;-71
2023/01/11 03:37:43;;;;;;;17.20;6.60;;;;;;;1.84;98.68;99922.29;109555;1252;72534;-71
2023/01/11 03:40:38;;;;;;;16.50;6.90;;;;;;;1.86;98.36;99915.69;109453;1253;57364;-71
2023/01/11 03:43:28;;;;;;;19.00;7.70;;;;;;;1.87;98.38;99911.10;109289;1252;61052;-70
2023/01/11 03:46:26;;;;;;;20.00;7.30;;;;;;;1.86;98.23;99910.62;109274;1253;73168;-70
2023/01/11 03:49:32;;;;;;;20.40;7.40;;;;;;;1.85;98.39;99902.10;109465;1252;67621;-69
2023/01/11 03:52:30;;;;;;;16.40;6.50;;;;;;;1.85;98.22;99899.83;109442;1253;72805;-70
2023/01/11 03:55:18;;;;;;;19.20;7.80;;;;;;;1.84;98.11;99890.94;109517;1252;57955;-70
2023/01/11 03:58:07;;;;;;;20.00;7.70;;;;;;;1.84;97.92;99883.61;109587;1252;60291;-70
2023/01/11 04:00:56;;;;;;;16.60;7.10;;;;;;;1.83;97.75;99881.04;109583;1252;71454;-71
2023/01/11 04:03:44;;;;;;;18.70;7.70;;;;;;;1.81;97.38;99874.63;109558;1252;68046;-71
2023/01/11 04:06:35;;;;;;;16.90;7.10;;;;;;;1.82;97.02;99868.11;109515;1252;72515;-70
2023/01/11 04:09:23;;;;;;;20.30;7.00;;;;;;;1.83;96.35;99855.97;109258;1253;58536;-71
2023/01/11 04:12:11;;;;;;;16.70;7.20;;;;;;;1.86;95.98;99851.31;109575;1252;59088;-69
2023/01/11 04:15:01;;;;;;;17.50;6.40;;;;;;;1.87;95.28;99848.48;109534;1252;72858;-68
2023/01/11 04:17:49;;;;;;;15.20;5.50;;;;;;;1.89;94.77;99841.91;109557;1252;68014;-72
2023/01/11 04:20:39;;;;;;;17.60;6.50;;;;;;;1.91;94.47;99840.95;109550;1252;70538;-70
2023/01/11 04:23:29;;;;;;;17.80;7.00;;;;;;;1.93;94.35;99839.29;109500;1252;58844;-72
2023/01/11 04:26:17;;;;;;;15.00;6.10;;;;;;;1.95;94.10;99836.77;109483;1252;60376;-69
2023/01/11 04:29:06;;;;;;;15.40;5.90;;;;;;;1.95;94.05;99830.45;109583;1252;72645;-69
2023/01/11 04:31:54;;;;;;;18.60;6.30;;;;;;;1.93;94.26;99830.73;109518;1253;66767;-70
2023/01/11 04:34:42;;;;;;;17.50;6.30;;;;;;;1.91;94.23;99829.20;109525;1253;70102;-70
2023/01/11 04:37:30;;;;;;;17.40;6.50;;;;;;;1.93;94.45;99828.44;109533;1252;58749;-69
2023/01/11 04:40:17;;;;;;;19.20;6.70;;;;;;;1.92;94.37;99827.60;109529;1253;57710;-70
2023/01/11 04:43:06;;;;;;;16.00;6.30;;;;;;;1.91;94.44;99822.94;109480;1252;71890;-70
2023/01/11 04:45:58;;;;;;;17.20;6.50;;;;;;;1.90;94.64;99821.40;109591;1252;68194;-70
2023/01/11 04:48:46;;;;;;;17.40;7.30;;;;;;;1.90;94.90;99811.63;109449;1256;72870;-70
2023/01/11 04:51:34;;;;;;;16.10;6.40;;;;;;;1.90;94.71;99815.10;109560;1252;57332;-71
2023/01/11 04:54:22;;;;;;;16.80;6.10;;;;;;;1.90;94.53;99807.92;108763;1253;1002421;-70
2023/01/11 04:57:13;;;;;;;16.60;6.10;;;;;;;1.90;94.25;99809.85;109672;1252;71464;-72
2023/01/11 05:00:01;;;;;;;17.00;6.90;;;;;;;1.90;94.37;99800.92;109681;1252;66873;-71
2023/01/11 05:02:49;;;;;;;16.80;6.10;;;;;;;1.89;94.15;99796.74;109608;1253;71745;-70
2023/01/11 05:05:37;;;;;;;18.00;6.60;;;;;;;1.90;94.18;99795.33;109715;1252;57240;-70
2023/01/11 05:08:27;;;;;;;12.90;5.10;;;;;;;1.90;93.97;99786.77;109585;1252;58961;-71
2023/01/11 05:11:16;;;;;;;14.40;5.90;;;;;;;1.89;93.82;99779.25;109393;1252;74008;-70
2023/01/11 05:14:13;;;;;;;14.80;5.80;;;;;;;1.88;93.46;99778.45;109478;1252;67946;-72
2023/01/11 05:17:01;;;;;;;16.20;6.10;;;;;;;1.90;93.29;99776.45;109454;1253;73722;-71
2023/01/11 05:19:49;;;;;;;18.90;6.40;;;;;;;1.91;93.10;99778.14;109531;1252;58561;-73
2023/01/11 05:22:37;;;;;;;17.60;6.40;;;;;;;1.92;92.83;99782.48;109560;1252;60546;-71
2023/01/11 05:25:25;;;;;;;15.30;5.50;;;;;;;1.92;92.68;99777.70;109517;1252;73298;-75
2023/01/11 05:28:13;;;;;;;16.20;6.10;;;;;;;1.94;92.19;99772.92;109507;1252;67571;-71
2023/01/11 05:31:01;;;;;;;14.20;6.10;;;;;;;1.95;92.12;99773.41;109494;1253;72819;-72
2023/01/11 05:33:49;;;;;;;15.30;6.60;;;;;;;1.94;91.73;99769.40;109392;1253;57353;-71
2023/01/11 05:36:37;;;;;;;15.60;6.30;;;;;;;1.94;91.77;99763.81;109535;1253;58857;-73
2023/01/11 05:39:25;;;;;;;15.40;6.20;;;;;;;1.96;91.54;99764.23;109447;1252;73929;-70
2023/01/11 05:42:12;;;;;;;17.00;6.40;;;;;;;1.95;91.34;99749.42;109514;1252;69083;-71
2023/01/11 05:48:06;;;;;;;13.00;4.90;;;;;;;1.94;91.02;99745.25;109506;1252;60240;-71
2023/01/11 05:50:55;;;;;;;15.50;6.70;;;;;;;1.94;91.02;99738.29;109512;1252;59636;-75
2023/01/11 05:53:43;;;;;;;13.40;5.00;;;;;;;1.92;91.19;99736.42;109453;1253;72972;-72
2023/01/11 05:56:31;;;;;;;15.50;6.00;;;;;;;1.90;91.26;99735.13;108721;1252;1002077;-69
2023/01/11 05:59:19;;;;;;;14.20;6.30;;;;;;;1.87;91.46;99731.05;109544;1252;71421;-69
2023/01/11 06:02:07;;;;;;;15.40;6.20;;;;;;;1.86;91.35;99725.36;109517;1251;58497;-70
2023/01/11 06:04:55;;;;;;;19.30;6.20;;;;;;;1.85;91.21;99720.80;109597;1253;60266;-73
2023/01/11 06:07:43;;;;;;;15.20;6.20;;;;;;;1.84;91.23;99716.67;108752;1252;1002928;-72
2023/01/11 06:10:31;;;;;;;18.60;5.80;;;;;;;1.84;91.32;99713.36;109603;1252;67875;-69
2023/01/11 06:13:25;;;;;;;14.00;5.60;;;;;;;1.85;91.04;99708.59;109487;1253;71901;-70
2023/01/11 06:16:19;;;;;;;14.10;6.00;;;;;;;1.87;90.94;99692.73;108717;1252;1002570;-71
2023/01/11 06:19:07;;;;;;;16.60;6.20;;;;;;;1.89;90.73;99692.48;109393;1252;58762;-70
2023/01/11 06:21:55;;;;;;;14.70;5.60;;;;;;;1.91;90.68;99688.55;109497;1252;72882;-71
2023/01/11 06:24:43;;;;;;;13.00;4.50;;;;;;;1.92;90.36;99689.41;109481;1252;66612;-69
2023/01/11 06:27:31;;;;;;;14.40;5.60;;;;;;;1.90;90.68;99689.45;109425;1253;73460;-70
2023/01/11 06:30:19;;;;;;;13.20;5.00;;;;;;;1.95;90.72;99695.55;109529;1252;57404;-69
2023/01/11 06:33:07;;;;;;;13.60;5.60;;;;;;;1.97;90.77;99690.91;109590;1252;60006;-68
2023/01/11 06:35:56;;;;;;;17.90;5.70;;;;;;;1.99;90.47;99691.63;109562;1252;73108;-72
2023/01/11 06:38:44;;;;;;;13.30;4.80;;;;;;;2.03;90.52;99690.23;109598;1253;65924;-69
2023/01/11 06:41:32;;;;;;;14.30;4.50;;;;;;;2.08;90.50;99688.61;109531;1252;70624;-73
2023/01/11 06:44:20;;;;;;;15.60;5.60;;;;;;;2.11;90.24;99688.65;109566;1252;58846;-70
2023/01/11 06:47:08;;;;;;;15.20;6.00;;;;;;;2.16;89.79;99679.14;109559;1251;60793;-71
2023/01/11 06:49:56;;;;;;;12.40;4.70;;;;;;;2.22;89.24;99672.70;109596;1253;73039;-72
2023/01/11 06:52:58;;;;;;;14.30;5.30;;;;;;;2.26;88.43;99677.41;109621;1251;68887;-72
2023/01/11 06:55:51;;;;;;;11.50;4.40;;;;;;;2.33;88.20;99667.58;109590;1252;72818;-70
2023/01/11 06:58:40;;;;;;;11.90;4.40;;;;;;;2.38;87.21;99669.63;109558;1251;57397;-69
2023/01/11 07:01:29;;;;;;;11.60;4.50;;;;;;;2.43;86.92;99671.11;109633;1252;59247;-73
2023/01/11 07:04:18;;;;;;;11.40;4.70;;;;;;;2.46;86.92;99671.36;109556;1253;73945;-72
2023/01/11 07:07:06;;;;;;;10.00;4.30;;;;;;;2.47;86.88;99668.65;109598;1251;67173;-72
2023/01/11 07:09:54;;;;;;;12.60;4.70;;;;;;;2.50;86.96;99669.04;109572;1252;71698;-72
2023/01/11 07:12:41;;;;;;;12.70;4.60;;;;;;;2.53;86.90;99673.23;109526;1252;57465;-71
2023/01/11 07:15:29;;;;;;;12.30;5.20;;;;;;;2.58;87.01;99667.43;109582;1252;60052;-70
2023/01/11 07:18:18;;;;;;;11.50;4.40;;;;;;;2.60;86.62;99667.31;109553;1252;73740;-70
2023/01/11 07:21:06;;;;;;;10.00;4.30;;;;;;;2.67;86.29;99666.60;109484;1253;67631;-72
2023/01/11 07:23:54;;;;;;;12.70;4.60;;;;;;;2.73;85.73;99664.19;109505;1252;73849;-72
2023/01/11 07:26:42;;;;;;;12.10;4.80;;;;;;;2.77;84.90;99666.63;109598;1252;57663;-71
2023/01/11 07:29:30;;;;;;;12.90;5.10;;;;;;;2.81;85.05;99667.45;109568;1252;61250;-72
2023/01/11 07:32:19;;;;;;;11.50;4.30;;;;;;;2.84;84.71;99670.27;109591;1252;74324;-70
2023/01/11 07:35:07;;;;;;;12.40;4.50;;;;;;;2.87;84.17;99672.91;109602;1252;68584;-68
2023/01/11 07:37:55;;;;;;;10.10;4.30;;;;;;;2.93;84.00;99674.00;109575;1251;73346;-70
2023/01/11 07:40:43;;;;;;;13.80;4.90;;;;;;;2.95;83.70;99669.02;109544;1251;57300;-71
2023/01/11 07:43:32;;;;;;;15.90;5.80;;;;;;;2.97;83.25;99678.91;109543;1252;61503;-72
2023/01/11 07:46:20;;;;;;;13.40;4.90;;;;;;;3.01;82.88;99669.59;109502;1252;73148;-71
2023/01/11 07:49:08;;;;;;;13.20;5.00;;;;;;;3.04;82.76;99666.27;109556;1253;68077;-74
2023/01/11 07:51:56;;;;;;;16.00;5.60;;;;;;;3.06;82.90;99664.40;109588;1252;72698;-70
2023/01/11 07:54:44;;;;;;;16.70;5.70;;;;;;;3.06;82.45;99655.30;109575;1251;58404;-71
2023/01/11 07:57:31;;;;;;;12.90;5.20;;;;;;;3.07;82.10;99649.80;109503;1252;60143;-71
2023/01/11 08:00:20;;;;;;;13.60;4.90;;;;;;;3.10;81.91;99652.27;109344;1253;71524;-71
2023/01/11 08:03:08;;;;;;;12.40;5.00;;;;;;;3.11;81.67;99644.70;109581;1252;68056;-73
2023/01/11 08:05:56;;;;;;;11.40;4.70;;;;;;;3.11;81.61;99641.00;109512;1251;71351;-72
2023/01/11 08:08:44;;;;;;;12.50;5.10;;;;;;;3.11;81.04;99629.23;109578;1252;58376;-72
2023/01/11 08:14:40;;;;;;;17.50;5.60;;;;;;;3.17;80.57;99633.16;109513;1253;72783;-72
2023/01/11 08:17:28;;;;;;;13.80;5.30;;;;;;;3.19;80.71;99633.02;109573;1253;66764;-73
2023/01/11 08:20:16;;;;;;;14.10;5.30;;;;;;;3.18;80.09;99635.52;109515;1252;72432;-72
2023/01/11 08:23:05;;;;;;;14.00;6.30;;;;;;;3.22;79.92;99629.88;109490;1252;60127;-70
2023/01/11 08:25:57;;;;;;;13.10;5.00;;;;;;;3.23;79.57;99628.08;109579;1253;58745;-71
2023/01/11 08:28:45;;;;;;;12.80;4.90;;;;;;;3.26;79.39;99640.73;109530;1253;73025;-70
2023/01/11 08:31:33;;;;;;;12.50;5.10;;;;;;;3.27;79.10;99630.49;109557;1251;66774;-71
2023/01/11 08:34:22;;;;;;;12.70;5.30;;;;;;;3.28;78.97;99624.64;109540;1252;73403;-73
2023/01/11 08:37:09;;;;;;;11.00;4.40;;;;;;;3.31;78.55;99634.48;109576;1252;57580;-70
2023/01/11 08:39:57;;;;;;;12.60;4.10;;;;;;;3.34;78.14;99632.56;109586;1252;60084;-69
2023/01/11 08:42:45;;;;;;;10.70;4.30;;;;;;;3.36;77.64;99633.30;109487;1253;73178;-68
2023/01/11 08:45:33;;;;;;;12.80;4.80;;;;;;;3.41;77.42;99626.40;109615;1253;67862;-71
2023/01/11 08:48:22;;;;;;;15.40;5.40;;;;;;;3.46;77.33;99629.29;109496;1252;71115;-71
2023/01/11 08:51:10;;;;;;;11.40;4.40;;;;;;;3.51;77.14;99618.46;109484;1253;57197;-70
2023/01/11 08:53:58;;;;;;;12.70;5.60;;;;;;;3.54;76.85;99623.23;109589;1251;60129;-69
2023/01/11 08:56:45;;;;;;;14.20;5.10;;;;;;;3.53;76.64;99626.43;109491;1252;74095;-70
2023/01/11 08:59:33;;;;;;;11.30;5.30;;;;;;;3.56;76.57;99618.55;109489;1253;66481;-69
2023/01/11 09:02:21;;;;;;;11.70;5.00;;;;;;;3.56;76.29;99623.30;109479;1252;72921;-70
2023/01/11 09:05:09;;;;;;;13.50;4.90;;;;;;;3.55;76.19;99621.09;109460;1251;57347;-70
2023/01/11 09:07:57;;;;;;;11.10;4.30;;;;;;;3.57;76.36;99613.92;109459;1252;61479;-69
2023/01/11 09:10:44;;;;;;;12.90;4.70;;;;;;;3.58;76.12;99613.52;109550;1252;74179;-69
2023/01/11 09:13:32;;;;;;;13.60;5.70;;;;;;;3.59;75.83;99618.93;109560;1252;65900;-70
2023/01/11 09:16:21;;;;;;;13.50;5.00;;;;;;;3.61;75.75;99611.84;109572;1252;72493;-69
2023/01/11 09:19:08;;;;;;;12.10;4.60;;;;;;;3.61;75.73;99607.80;109551;1251;58379;-70
2023/01/11 09:21:59;;;;;;;12.20;4.60;;;;;;;3.63;75.66;99598.55;109589;1253;60326;-70
2023/01/11 09:24:47;;;;;;;13.60;5.00;;;;;;;3.64;75.37;99596.55;109476;1253;72806;-69
2023/01/11 09:27:34;;;;;;;11.90;4.10;;;;;;;3.68;75.00;99588.08;109364;1253;66385;-71
2023/01/11 09:30:23;;;;;;;10.90;3.80;;;;;;;3.69;74.42;99589.96;109466;1253;72694;-73
2023/01/11 09:33:11;;;;;;;10.90;3.90;;;;;;;3.69;74.06;99579.20;109507;1253;57444;-72
2023/01/11 09:36:01;;;;;;;10.30;4.60;;;;;;;3.76;73.96;99569.70;109432;1253;60516;-70
2023/01/11 09:38:51;;;;;;;13.20;4.90;;;;;;;3.83;73.67;99571.27;109329;1253;71584;-69
2023/01/11 09:42:21;;;;;;;11.20;4.40;;;;;;;3.97;73.47;99559.95;109484;1253;68378;-72
2023/01/11 09:45:21;;;;;;;12.70;4.40;;;;;;;4.12;71.95;99553.92;109516;1253;73737;-71
2023/01/11 09:48:27;;;;;;;11.60;5.10;;;;;;;4.22;71.60;99557.23;109457;1253;57393;-72
2023/01/11 09:51:15;;;;;;;13.20;5.00;;;;;;;4.31;70.91;99547.39;109475;1252;60425;-72
2023/01/11 09:54:06;;;;;;;12.90;5.10;;;;;;;4.39;70.70;99552.17;109517;1252;72765;-70
2023/01/11 09:57:25;;;;;;;13.80;4.30;;;;;;;4.37;70.31;99538.60;109551;1251;68785;-70
2023/01/11 10:00:26;;;;;;;11.10;4.20;;;;;;;4.30;70.38;99539.52;109535;1253;73612;-70
2023/01/11 10:03:37;;;;;;;13.60;5.10;;;;;;;4.25;70.32;99538.23;109447;1252;57357;-71
2023/01/11 10:06:32;;;;;;;10.80;4.40;;;;;;;4.17;69.98;99524.13;109522;1251;60828;-73
2023/01/11 10:09:57;;;;;;;12.60;4.40;;;;;;;4.14;70.16;99517.15;109573;1252;72673;-70
2023/01/11 10:13:42;;;;;;;9.80;3.50;;;;;;;4.15;70.28;99517.60;108812;1253;1002562;-72
2023/01/11 10:17:08;;;;;;;9.90;3.70;;;;;;;4.21;70.11;99517.41;109575;1251;71742;-72
2023/01/11 10:20:27;;;;;;;15.00;4.00;;;;;;;4.23;69.65;99523.64;109522;1253;57306;-73
2023/01/11 10:23:40;;;;;;;12.70;4.40;;;;;;;4.28;69.61;99522.62;109495;1252;59307;-70
2023/01/11 10:26:38;;;;;;;13.00;4.40;;;;;;;4.31;69.62;99513.82;109585;1252;73133;-72
2023/01/11 10:29:52;;;;;;;11.40;3.80;;;;;;;4.32;69.38;99510.23;109558;1251;66909;-71
2023/01/11 10:33:09;;;;;;;12.60;4.10;;;;;;;4.30;69.30;99497.34;109532;1252;71901;-70
2023/01/11 10:39:45;;;;;;;8.60;3.80;;;;;;;4.26;69.87;99499.56;109601;1252;60459;-70
2023/01/11 10:42:39;;;;;;;9.30;3.70;;;;;;;4.25;69.80;99492.40;109547;1252;72269;-70
2023/01/11 10:46:20;;;;;;;10.70;3.70;;;;;;;4.29;70.17;99495.15;109605;1251;68008;-71
2023/01/11 10:49:27;;;;;;;10.50;3.40;;;;;;;4.30;69.97;99485.61;109524;1253;71841;-72
2023/01/11 10:52:40;;;;;;;11.10;4.00;;;;;;;4.29;69.87;99480.59;109555;1255;57569;-70
2023/01/11 10:55:43;;;;;;;12.70;5.10;;;;;;;4.30;70.04;99474.90;109562;1255;60254;-69
2023/01/11 10:59:06;;;;;;;11.70;4.10;;;;;;;4.33;69.84;99472.25;108833;1252;1002997;-69
2023/01/11 11:02:24;;;;;;;13.00;4.20;;;;;;;4.36;69.85;99465.38;109585;1252;69105;-73
2023/01/11 11:05:43;;;;;;;14.80;4.60;;;;;;;4.37;69.83;99453.08;109586;1252;73247;-69
2023/01/11 11:09:10;;;;;;;15.90;4.50;;;;;;;4.40;70.24;99447.61;109541;1252;58366;-70
2023/01/11 11:12:28;;;;;;;12.80;3.60;;;;;;;4.38;69.71;99445.98;109563;1253;59489;-70
2023/01/11 11:15:57;;;;;;;13.00;5.10;;;;;;;4.39;70.06;99440.06;109574;1253;74281;-70
2023/01/11 11:18:45;;;;;;;13.10;5.40;;;;;;;4.36;69.71;99436.95;108973;1259;68151;-70
2023/01/11 11:21:37;;;;;;;12.20;5.10;;;;;;;4.33;69.96;99439.08;108923;1259;73928;-70
2023/01/11 11:24:44;;;;;;;14.70;5.50;;;;;;;4.33;70.32;99431.17;108916;1258;57375;-70
2023/01/11 11:27:57;;;;;;;12.00;4.50;;;;;;;4.32;70.39;99424.54;108996;1259;58521;-70
2023/01/11 11:30:46;;;;;;;11.90;4.80;;;;;;;4.31;70.67;99413.57;108923;1259;74203;-70
2023/01/11 11:33:38;;;;;;;12.20;4.50;;;;;;;4.33;70.52;99417.11;108974;1259;66509;-71
2023/01/11 11:36:25;;;;;;;13.00;4.70;;;;;;;4.30;70.32;99419.23;108923;1259;72702;-70
2023/01/11 11:39:28;;;;;;;13.10;4.40;;;;;;;4.30;70.57;99404.48;108939;1259;57835;-70
2023/01/11 11:42:20;;;;;;;10.50;4.80;;;;;;;4.26;70.48;99401.36;108898;1259;58765;-70
2023/01/11 11:45:07;;;;;;;14.60;4.20;;;;;;;4.21;70.65;99394.83;108988;1259;74094;-72
2023/01/11 11:48:04;;;;;;;13.20;5.00;;;;;;;4.19;71.23;99387.77;108970;1261;68662;-71
2023/01/11 11:50:56;;;;;;;13.90;5.20;;;;;;;4.17;71.40;99377.92;108931;1258;70707;-71
2023/01/11 11:53:55;;;;;;;12.20;5.00;;;;;;;4.14;71.55;99370.17;108873;1259;57315;-69
2023/01/11 11:56:43;;;;;;;12.20;5.00;;;;;;;4.16;71.90;99357.27;108726;1252;1002264;-70
2023/01/11 11:59:32;;;;;;;15.70;5.10;;;;;;;4.14;71.22;99360.38;109537;1253;71853;-70
2023/01/11 12:02:30;;;;;;;14.90;5.50;;;;;;;4.14;71.63;99365.23;109574;1253;67877;-70
2023/01/11 12:05:18;;;;;;;13.60;4.90;;;;;;;4.16;72.13;99361.30;109613;1252;72740;-70
2023/01/11 12:08:13;;;;;;;14.50;5.10;;;;;;;4.12;71.98;99359.73;108761;1253;1002121;-70
2023/01/11 12:11:06;;;;;;;15.10;5.50;;;;;;;4.12;71.95;99356.09;109597;1253;60362;-70
2023/01/11 12:14:09;;;;;;;13.70;5.00;;;;;;;4.12;72.19;99352.38;109453;1253;73081;-71
2023/01/11 12:16:58;;;;;;;12.20;4.90;;;;;;;4.13;71.97;99358.84;108818;1252;1002347;-71
2023/01/11 12:19:46;;;;;;;13.70;5.20;;;;;;;4.14;72.20;99343.16;109516;1252;72778;-70
2023/01/11 12:22:34;;;;;;;17.30;5.30;;;;;;;4.11;72.43;99343.67;109471;1252;57545;-70
2023/01/11 12:25:25;;;;;;;14.50;5.70;;;;;;;4.11;72.63;99332.81;109509;1251;58968;-69
2023/01/11 12:28:26;;;;;;;13.20;5.50;;;;;;;4.08;72.42;99332.61;109565;1253;74709;-71
2023/01/11 12:31:41;;;;;;;13.90;5.00;;;;;;;4.07;72.60;99330.89;109557;1253;66406;-71
2023/01/11 12:34:44;;;;;;;14.20;5.20;;;;;;;4.06;72.82;99324.34;109524;1253;73457;-74
2023/01/11 12:38:00;;;;;;;13.20;5.30;;;;;;;4.07;73.01;99321.09;109591;1253;57356;-70
2023/01/11 12:41:42;;;;;;;14.10;5.80;;;;;;;4.07;73.20;99324.42;108750;1253;1002423;-72
2023/01/11 12:45:07;;;;;;;10.40;4.40;;;;;;;4.06;72.99;99331.52;109508;1252;72333;-71
2023/01/11 12:48:16;;;;;;;13.30;4.90;;;;;;;4.02;73.38;99319.46;109579;1253;66401;-72
2023/01/11 12:51:19;;;;;;;12.80;4.80;;;;;;;4.00;73.58;99318.34;109485;1253;73569;-72
2023/01/11 12:54:38;;;;;;;11.90;4.70;;;;;;;3.99;73.72;99315.61;109496;1253;57429;-70
2023/01/11 12:57:59;;;;;;;13.90;5.10;;;;;;;3.99;73.87;99320.16;109512;1255;60058;-72
2023/01/11 13:01:37;;;;;;;14.20;5.40;;;;;;;3.98;73.98;99322.55;109504;1253;71565;-71
2023/01/11 13:04:51;;;;;;;11.30;4.40;;;;;;;3.97;74.37;99316.45;109579;1253;67728;-70
2023/01/11 13:07:46;;;;;;;13.40;4.80;;;;;;;3.92;74.36;99313.95;109530;1253;72608;-71
2023/01/11 13:10:50;;;;;;;13.10;4.80;;;;;;;3.89;74.70;99304.63;109541;1253;59995;-70
2023/01/11 13:14:00;;;;;;;12.10;4.60;;;;;;;3.89;74.86;99302.90;109472;1252;60465;-69
2023/01/11 13:17:00;;;;;;;12.40;4.80;;;;;;;3.90;75.08;99296.17;109496;1252;70859;-70
2023/01/11 13:20:16;;;;;;;12.80;5.20;;;;;;;3.87;75.27;99297.58;109473;1253;67589;-71
2023/01/11 13:23:31;;;;;;;12.60;5.20;;;;;;;3.88;75.42;99294.56;109456;1254;73390;-70
2023/01/11 13:26:39;;;;;;;12.70;5.00;;;;;;;3.87;75.56;99295.98;109438;1254;57287;-69
2023/01/11 13:29:51;;;;;;;12.80;5.50;;;;;;;3.83;75.93;99294.67;109375;1254;61652;-70
2023/01/11 13:32:43;;;;;;;14.30;5.30;;;;;;;3.80;76.17;99293.83;109520;1253;74020;-70
2023/01/11 13:35:48;;;;;;;13.30;5.30;;;;;;;3.80;76.17;99291.69;109350;1253;66451;-71
2023/01/11 13:38:56;;;;;;;14.60;5.30;;;;;;;3.75;76.33;99287.41;109512;1254;72448;-71
2023/01/11 13:41:51;;;;;;;11.40;4.40;;;;;;;3.78;76.39;99286.77;109346;1253;57469;-68
2023/01/11 13:44:48;;;;;;;15.70;4.90;;;;;;;3.75;76.37;99284.63;109467;1253;60179;-71
2023/01/11 13:47:44;;;;;;;15.10;4.70;;;;;;;3.72;76.39;99280.61;109448;1252;73192;-71
2023/01/11 13:50:59;;;;;;;10.10;4.00;;;;;;;3.71;76.60;99273.97;109443;1254;66947;-70
2023/01/11 13:54:06;;;;;;;10.90;4.30;;;;;;;3.70;76.61;99274.75;109391;1253;72405;-70